Time;durP1;ratioP1;P1;durP2;ratioP2;P2;SDS_P1;SDS_P2;PMS_P1;PMS_P2;Temp;Humidity;BMP_temperature;BMP_pressure;BME280_temperature;BME280_humidity;BME280_pressure;Samples;Min_cycle;Max_cycle;Signal;HPM_P1;HPM_P2
2023/11/17 00:00:54;;;;;;;3.15;2.95;;;5.10;99.90;;;;;;5101164;28;20254;-74
2023/11/17 00:03:21;;;;;;;3.20;3.00;;;5.20;99.90;;;;;;5103692;28;20213;-73
2023/11/17 00:05:48;;;;;;;3.13;2.92;;;5.20;99.90;;;;;;5102407;28;20230;-74
2023/11/17 00:08:14;;;;;;;3.20;3.00;;;5.20;99.90;;;;;;5101752;28;20612;-75
2023/11/17 00:10:42;;;;;;;3.05;2.78;;;5.20;99.90;;;;;;5103231;28;20579;-74
2023/11/17 00:13:08;;;;;;;2.97;2.78;;;5.30;99.90;;;;;;5098043;28;20251;-74
2023/11/17 00:15:37;;;;;;;3.33;3.13;;;5.30;99.90;;;;;;5103219;28;20253;-74
2023/11/17 00:18:04;;;;;;;3.15;2.95;;;5.30;99.90;;;;;;5103196;28;20253;-75
2023/11/17 00:20:31;;;;;;;3.55;3.25;;;5.30;99.90;;;;;;5098027;28;21147;-74
2023/11/17 00:22:58;;;;;;;3.58;3.33;;;5.30;99.90;;;;;;5101050;28;20257;-74
2023/11/17 00:25:25;;;;;;;5.43;3.50;;;5.30;99.90;;;;;;5097988;28;20197;-75
2023/11/17 00:27:52;;;;;;;3.15;2.95;;;5.20;99.90;;;;;;5101664;28;20276;-74
2023/11/17 00:30:19;;;;;;;3.33;3.03;;;5.20;99.90;;;;;;5100364;28;20213;-76
2023/11/17 00:32:47;;;;;;;3.30;3.10;;;5.20;99.90;;;;;;5099518;28;20512;-74
2023/11/17 00:35:14;;;;;;;3.38;3.17;;;5.20;99.90;;;;;;5099364;28;20193;-75
2023/11/17 00:37:41;;;;;;;3.08;2.88;;;5.20;99.90;;;;;;5100518;28;20644;-75
2023/11/17 00:40:10;;;;;;;3.20;3.00;;;5.30;99.90;;;;;;5101889;28;20245;-73
2023/11/17 00:42:37;;;;;;;3.25;3.05;;;5.30;99.90;;;;;;5102025;28;20269;-74
2023/11/17 00:45:07;;;;;;;3.58;3.38;;;5.30;99.90;;;;;;5101921;27;21087;-75
2023/11/17 00:47:34;;;;;;;3.65;3.35;;;5.30;99.90;;;;;;5102973;28;20193;-75
2023/11/17 00:50:03;;;;;;;3.58;3.30;;;5.30;99.90;;;;;;5102827;27;20201;-74
2023/11/17 00:52:30;;;;;;;3.65;3.33;;;5.30;99.90;;;;;;5104198;27;20249;-75
2023/11/17 00:55:04;;;;;;;3.58;3.28;;;5.30;99.90;;;;;;5102151;27;20202;-74
2023/11/17 00:57:32;;;;;;;3.40;3.20;;;5.20;99.90;;;;;;5103413;27;20215;-75
2023/11/17 00:59:59;;;;;;;3.63;3.33;;;5.20;99.90;;;;;;5107891;27;20288;-74
2023/11/17 01:02:41;;;;;;;3.40;3.10;;;5.10;99.90;;;;;;5104921;27;21351;-74
2023/11/17 01:05:09;;;;;;;3.88;3.58;;;5.00;99.90;;;;;;5104253;27;20785;-74
2023/11/17 01:07:42;;;;;;;4.05;3.75;;;5.00;99.90;;;;;;5110728;27;20250;-74
2023/11/17 01:10:15;;;;;;;4.60;3.67;;;5.00;99.90;;;;;;5108506;27;20287;-73
2023/11/17 01:12:42;;;;;;;3.55;3.25;;;5.00;99.90;;;;;;5103696;27;20219;-74
2023/11/17 01:15:13;;;;;;;3.67;3.42;;;5.00;99.90;;;;;;5104411;27;20201;-73
2023/11/17 01:17:42;;;;;;;3.67;3.40;;;5.00;99.90;;;;;;5106300;27;20618;-73
2023/11/17 01:20:12;;;;;;;3.35;3.15;;;5.10;99.90;;;;;;5103399;28;20196;-75
2023/11/17 01:22:39;;;;;;;4.18;3.90;;;5.10;99.90;;;;;;5103370;27;20217;-74
2023/11/17 01:25:07;;;;;;;3.30;3.10;;;5.10;99.90;;;;;;5105605;27;20205;-75
2023/11/17 01:27:34;;;;;;;3.58;3.30;;;5.10;99.90;;;;;;5104032;27;20216;-75
2023/11/17 01:30:00;;;;;;;3.60;3.30;;;5.10;99.90;;;;;;5103919;27;20293;-74
2023/11/17 01:32:31;;;;;;;3.88;3.58;;;5.10;99.90;;;;;;5106157;27;20224;-76
2023/11/17 01:34:59;;;;;;;3.67;3.42;;;5.10;99.90;;;;;;5104021;28;20288;-75
2023/11/17 01:37:27;;;;;;;3.40;3.20;;;5.10;99.90;;;;;;5105470;27;20894;-73
2023/11/17 01:39:54;;;;;;;3.60;3.40;;;5.10;99.90;;;;;;5103522;27;20196;-74
2023/11/17 01:42:22;;;;;;;3.80;3.50;;;5.10;99.90;;;;;;5106510;27;20221;-75
2023/11/17 01:44:49;;;;;;;4.38;3.97;;;5.10;99.90;;;;;;5104212;27;20731;-74
2023/11/17 01:47:16;;;;;;;3.40;3.20;;;5.10;99.90;;;;;;5104584;27;20200;-74
2023/11/17 01:49:44;;;;;;;3.45;3.25;;;5.10;99.90;;;;;;5097954;28;20834;-74
2023/11/17 01:52:12;;;;;;;4.18;3.88;;;5.00;99.90;;;;;;5104239;28;20221;-74
2023/11/17 01:54:41;;;;;;;3.25;3.05;;;5.00;99.90;;;;;;5102795;27;20250;-74
2023/11/17 01:57:08;;;;;;;4.03;3.65;;;5.00;99.90;;;;;;5105042;27;20209;-74
2023/11/17 01:59:35;;;;;;;3.50;3.30;;;5.00;99.90;;;;;;5098967;27;20221;-74
2023/11/17 02:02:04;;;;;;;3.55;3.35;;;5.00;99.90;;;;;;5103286;28;20266;-77
2023/11/17 02:04:32;;;;;;;3.55;3.35;;;5.00;99.90;;;;;;5098542;27;20312;-74
2023/11/17 02:07:08;;;;;;;3.53;3.15;;;5.00;99.90;;;;;;5106617;27;20196;-74
2023/11/17 02:09:47;;;;;;;3.67;3.40;;;4.90;99.90;;;;;;5104857;28;20209;-74
2023/11/17 02:12:23;;;;;;;3.53;3.33;;;4.90;99.90;;;;;;5103474;27;20221;-74
2023/11/17 02:14:55;;;;;;;4.30;3.75;;;4.90;99.90;;;;;;5102010;27;20209;-73
2023/11/17 02:17:28;;;;;;;3.25;3.05;;;4.90;99.90;;;;;;5101130;28;20228;-75
2023/11/17 02:19:59;;;;;;;4.38;3.97;;;4.90;99.90;;;;;;5097962;28;20202;-74
2023/11/17 02:22:30;;;;;;;3.83;3.28;;;4.80;99.90;;;;;;5101864;28;21170;-74
2023/11/17 02:25:21;;;;;;;3.22;3.03;;;4.70;99.90;;;;;;5097773;27;21100;-73
2023/11/17 02:27:59;;;;;;;3.72;3.42;;;4.70;99.90;;;;;;5101472;27;20674;-74
2023/11/17 02:30:30;;;;;;;4.15;3.83;;;4.70;99.90;;;;;;5102782;27;20199;-74
2023/11/17 02:32:59;;;;;;;3.22;3.03;;;4.70;99.90;;;;;;5100288;27;20209;-74
2023/11/17 02:35:29;;;;;;;3.30;3.10;;;4.70;99.90;;;;;;5101656;27;20864;-74
2023/11/17 02:38:00;;;;;;;3.40;3.15;;;4.70;99.90;;;;;;5101862;28;20211;-74
2023/11/17 02:40:31;;;;;;;3.58;3.28;;;4.70;99.90;;;;;;5097732;28;20189;-73
2023/11/17 02:42:58;;;;;;;3.40;3.20;;;4.60;99.90;;;;;;5100993;28;20217;-74
2023/11/17 02:45:26;;;;;;;3.30;3.10;;;4.60;99.90;;;;;;5095244;27;20201;-75
2023/11/17 02:47:56;;;;;;;3.30;3.10;;;4.60;99.90;;;;;;5097141;28;20223;-75
2023/11/17 02:50:31;;;;;;;3.63;3.35;;;4.50;99.90;;;;;;5101797;28;20687;-75
2023/11/17 02:53:10;;;;;;;3.63;3.42;;;4.50;99.90;;;;;;5098456;28;20757;-73
2023/11/17 02:55:39;;;;;;;3.40;3.10;;;4.50;99.90;;;;;;5099244;27;20290;-74
2023/11/17 02:58:07;;;;;;;3.10;2.90;;;4.40;99.90;;;;;;5101401;28;20309;-74
2023/11/17 03:00:34;;;;;;;3.33;3.03;;;4.40;99.90;;;;;;5096059;28;20434;-74
2023/11/17 03:03:02;;;;;;;3.22;2.92;;;4.40;99.90;;;;;;5100804;27;21809;-74
2023/11/17 03:05:29;;;;;;;3.42;3.20;;;4.40;99.90;;;;;;5099994;27;20730;-75
2023/11/17 03:07:56;;;;;;;3.58;3.38;;;4.40;99.90;;;;;;5099027;28;20644;-75
2023/11/17 03:10:24;;;;;;;3.17;2.97;;;4.40;99.90;;;;;;5101020;27;20197;-73
2023/11/17 03:12:55;;;;;;;2.78;2.58;;;4.30;99.90;;;;;;5102685;27;20281;-74
2023/11/17 03:15:22;;;;;;;3.03;2.83;;;4.40;99.90;;;;;;5099083;27;20215;-74
2023/11/17 03:17:51;;;;;;;3.28;3.08;;;4.40;99.90;;;;;;5102256;28;20879;-74
2023/11/17 03:20:20;;;;;;;3.10;3.00;;;4.40;99.90;;;;;;5097783;27;20209;-74
2023/11/17 03:22:47;;;;;;;3.40;3.20;;;4.40;99.90;;;;;;5100933;28;20225;-74
2023/11/17 03:25:16;;;;;;;3.00;2.80;;;4.40;99.90;;;;;;5100634;27;20201;-73
2023/11/17 03:27:44;;;;;;;3.22;3.03;;;4.40;99.90;;;;;;5103190;28;20228;-74
2023/11/17 03:30:12;;;;;;;3.05;2.85;;;4.40;99.90;;;;;;5103122;27;20205;-74
2023/11/17 03:32:39;;;;;;;2.97;2.78;;;4.40;99.90;;;;;;5096711;28;20217;-75
2023/11/17 03:35:06;;;;;;;3.28;3.08;;;4.40;99.90;;;;;;5102573;28;20201;-74
2023/11/17 03:37:35;;;;;;;3.05;2.90;;;4.40;99.90;;;;;;5101032;27;20209;-75
2023/11/17 03:40:07;;;;;;;3.30;3.10;;;4.40;99.90;;;;;;5103622;28;20209;-74
2023/11/17 03:42:35;;;;;;;3.30;3.10;;;4.40;99.90;;;;;;5101490;27;20221;-74
2023/11/17 03:45:08;;;;;;;2.97;2.78;;;4.30;99.90;;;;;;5098734;28;20219;-75
2023/11/17 03:47:36;;;;;;;3.35;3.10;;;4.30;99.90;;;;;;5102260;27;20765;-70
2023/11/17 03:50:03;;;;;;;3.33;3.03;;;4.30;99.90;;;;;;5099876;27;20193;-74
2023/11/17 03:52:31;;;;;;;3.40;3.20;;;4.20;99.90;;;;;;5095427;28;20332;-75
2023/11/17 03:55:00;;;;;;;3.30;3.10;;;4.20;99.90;;;;;;5100751;28;20954;-75
2023/11/17 03:57:28;;;;;;;3.47;3.28;;;4.20;99.90;;;;;;5096909;28;20790;-72
2023/11/17 03:59:57;;;;;;;3.38;3.17;;;4.00;99.90;;;;;;5097828;28;20201;-74
2023/11/17 04:02:24;;;;;;;3.25;3.05;;;3.90;99.90;;;;;;5100973;28;20224;-74
2023/11/17 04:04:51;;;;;;;3.20;3.00;;;3.90;99.90;;;;;;5099054;28;20292;-76
2023/11/17 04:07:19;;;;;;;3.20;3.00;;;3.80;99.90;;;;;;5097823;28;22037;-75
2023/11/17 04:09:47;;;;;;;3.10;2.90;;;3.80;99.90;;;;;;5099086;28;20195;-74
2023/11/17 04:12:16;;;;;;;3.20;3.00;;;3.90;99.90;;;;;;5103899;28;20307;-74
2023/11/17 04:14:45;;;;;;;3.38;3.17;;;3.90;99.90;;;;;;5102146;28;20208;-73
2023/11/17 04:17:12;;;;;;;3.58;3.38;;;4.00;99.90;;;;;;5095605;28;20910;-74
2023/11/17 04:19:41;;;;;;;2.70;2.60;;;4.10;99.90;;;;;;5105205;27;20670;-75
2023/11/17 04:22:09;;;;;;;2.97;2.80;;;4.10;99.90;;;;;;5102308;27;20715;-73
2023/11/17 04:24:37;;;;;;;3.00;2.90;;;4.10;99.90;;;;;;5101706;27;20788;-74
2023/11/17 04:27:04;;;;;;;2.75;2.65;;;4.10;99.90;;;;;;5106943;27;20914;-74
2023/11/17 04:29:32;;;;;;;3.17;2.97;;;4.20;99.90;;;;;;5107156;28;20253;-73
2023/11/17 04:31:59;;;;;;;2.97;2.88;;;4.20;99.90;;;;;;5102725;28;20679;-74
2023/11/17 04:34:27;;;;;;;3.10;2.90;;;4.20;99.90;;;;;;5100250;28;20689;-75
2023/11/17 04:36:54;;;;;;;2.97;2.78;;;4.20;99.90;;;;;;5102988;28;20871;-74
2023/11/17 04:39:24;;;;;;;3.30;3.10;;;4.30;99.90;;;;;;5102437;28;20217;-72
2023/11/17 04:41:51;;;;;;;3.22;3.03;;;4.30;99.90;;;;;;5104982;28;21993;-73
2023/11/17 04:44:18;;;;;;;3.72;3.40;;;4.20;99.90;;;;;;5103839;28;20193;-74
2023/11/17 04:46:47;;;;;;;3.25;3.05;;;4.20;99.90;;;;;;5097965;28;20206;-74
2023/11/17 04:49:15;;;;;;;3.88;3.67;;;4.20;99.90;;;;;;5104221;28;20906;-74
2023/11/17 04:51:46;;;;;;;3.63;3.42;;;4.10;99.90;;;;;;5104693;27;20212;-74
2023/11/17 04:54:14;;;;;;;3.90;3.67;;;4.00;99.90;;;;;;5104294;27;20204;-70
2023/11/17 04:56:41;;;;;;;3.33;3.13;;;3.90;99.90;;;;;;5100812;27;20201;-74
2023/11/17 04:59:10;;;;;;;3.30;3.10;;;3.90;99.90;;;;;;5105123;27;20908;-73
2023/11/17 05:01:37;;;;;;;3.72;3.42;;;3.80;99.90;;;;;;5101681;28;20197;-74
2023/11/17 05:04:06;;;;;;;3.60;3.40;;;3.90;99.90;;;;;;5103180;27;20204;-73
2023/11/17 05:06:36;;;;;;;3.47;3.28;;;4.00;99.90;;;;;;5105265;27;20771;-74
2023/11/17 05:09:09;;;;;;;3.45;3.15;;;3.90;99.90;;;;;;5103608;27;20280;-73
2023/11/17 05:11:36;;;;;;;3.70;3.40;;;3.90;99.90;;;;;;5100186;27;20202;-74
2023/11/17 05:14:05;;;;;;;3.58;3.30;;;3.90;99.90;;;;;;5105799;27;20211;-74
2023/11/17 05:16:32;;;;;;;3.95;3.65;;;3.90;99.90;;;;;;5106571;27;20193;-73
2023/11/17 05:18:59;;;;;;;4.03;3.65;;;3.90;99.90;;;;;;5101626;27;20221;-74
2023/11/17 05:21:28;;;;;;;3.38;3.17;;;3.90;99.90;;;;;;5105571;28;20205;-74
2023/11/17 05:23:55;;;;;;;3.25;3.05;;;3.90;99.90;;;;;;5105928;27;20201;-74
2023/11/17 05:26:23;;;;;;;3.83;3.60;;;3.80;99.90;;;;;;5106427;27;20205;-74
2023/11/17 05:28:50;;;;;;;4.07;3.72;;;3.70;99.90;;;;;;5106944;27;20282;-74
2023/11/17 05:31:20;;;;;;;4.10;3.80;;;3.60;99.90;;;;;;5104597;27;20204;-74
2023/11/17 05:33:47;;;;;;;5.03;4.57;;;3.60;99.90;;;;;;5105297;27;20273;-73
2023/11/17 05:36:16;;;;;;;4.07;3.65;;;3.50;99.90;;;;;;5100626;28;20197;-75
2023/11/17 05:38:44;;;;;;;4.93;4.53;;;3.30;99.90;;;;;;5100452;28;20270;-74
2023/11/17 05:41:13;;;;;;;4.57;4.28;;;3.20;99.90;;;;;;5105408;27;20292;-74
2023/11/17 05:43:42;;;;;;;4.53;4.22;;;3.10;99.90;;;;;;5104565;28;20231;-74
2023/11/17 05:46:11;;;;;;;4.63;4.22;;;3.00;99.90;;;;;;5100588;28;20204;-74
2023/11/17 05:48:38;;;;;;;4.40;4.10;;;3.00;99.90;;;;;;5102080;27;20963;-74
2023/11/17 05:51:09;;;;;;;4.72;4.32;;;3.10;99.90;;;;;;5105420;27;20201;-74
2023/11/17 05:53:37;;;;;;;5.10;4.70;;;3.10;99.90;;;;;;5104032;28;20224;-74
2023/11/17 05:56:07;;;;;;;5.50;5.00;;;3.10;99.90;;;;;;5101450;27;20300;-75
2023/11/17 05:58:35;;;;;;;4.30;4.07;;;3.10;99.90;;;;;;5104470;27;20205;-75
2023/11/17 06:01:02;;;;;;;5.35;4.95;;;3.20;99.90;;;;;;5102417;28;20217;-74
2023/11/17 06:03:29;;;;;;;3.88;3.67;;;3.20;99.90;;;;;;5102079;27;20277;-74
2023/11/17 06:05:56;;;;;;;4.50;4.15;;;3.20;99.90;;;;;;5099438;28;20201;-73
2023/11/17 06:08:23;;;;;;;4.05;3.80;;;3.30;99.90;;;;;;5103833;27;20617;-75
2023/11/17 06:10:50;;;;;;;3.88;3.60;;;3.40;99.90;;;;;;5103455;27;20288;-73
2023/11/17 06:13:19;;;;;;;3.70;3.40;;;3.40;99.90;;;;;;5102164;27;20282;-74
2023/11/17 06:15:46;;;;;;;3.55;3.35;;;3.40;99.90;;;;;;5098070;27;20205;-73
2023/11/17 06:18:14;;;;;;;3.60;3.40;;;3.50;99.90;;;;;;5100045;27;20236;-74
2023/11/17 06:20:41;;;;;;;3.28;3.15;;;3.50;99.90;;;;;;5099676;28;20201;-74
2023/11/17 06:23:09;;;;;;;3.55;3.35;;;3.60;99.90;;;;;;5104431;27;20216;-73
2023/11/17 06:25:36;;;;;;;3.75;3.50;;;3.70;99.90;;;;;;5101789;27;20284;-74
2023/11/17 06:28:04;;;;;;;3.58;3.38;;;3.70;99.90;;;;;;5098649;28;20196;-75
2023/11/17 06:30:32;;;;;;;3.30;3.10;;;3.70;99.90;;;;;;5102710;28;20254;-71
2023/11/17 06:32:59;;;;;;;3.83;3.53;;;3.80;99.90;;;;;;5100972;27;20261;-74
2023/11/17 06:35:26;;;;;;;3.72;3.53;;;3.80;99.90;;;;;;5097925;28;20613;-74
2023/11/17 06:37:53;;;;;;;3.47;3.22;;;3.90;99.90;;;;;;5103971;27;20201;-75
2023/11/17 06:40:21;;;;;;;3.50;3.30;;;3.90;99.90;;;;;;5104251;27;20273;-75
2023/11/17 06:42:47;;;;;;;3.50;3.28;;;3.90;99.90;;;;;;5100104;27;20221;-74
2023/11/17 06:45:14;;;;;;;3.42;3.22;;;4.00;99.90;;;;;;5097005;28;20688;-74
2023/11/17 06:47:46;;;;;;;3.40;3.20;;;4.00;99.90;;;;;;5097681;27;20230;-70
2023/11/17 06:50:13;;;;;;;3.30;3.10;;;4.00;99.90;;;;;;5099656;27;20284;-69
2023/11/17 06:52:41;;;;;;;3.45;3.25;;;4.00;99.90;;;;;;5099971;27;20212;-74
2023/11/17 06:55:09;;;;;;;4.07;3.80;;;4.00;99.90;;;;;;5101276;27;20216;-73
2023/11/17 06:57:36;;;;;;;3.90;3.70;;;4.10;99.90;;;;;;5100332;28;20236;-74
2023/11/17 07:00:07;;;;;;;3.80;3.60;;;4.10;99.90;;;;;;5100925;28;20238;-74
2023/11/17 07:02:34;;;;;;;4.25;4.00;;;4.20;99.90;;;;;;5100458;27;20209;-73
2023/11/17 07:05:06;;;;;;;3.75;3.55;;;4.30;99.90;;;;;;5099639;28;20242;-74
2023/11/17 07:07:35;;;;;;;5.35;4.95;;;4.40;99.90;;;;;;5100572;27;20284;-72
2023/11/17 07:10:02;;;;;;;4.45;4.15;;;4.40;99.90;;;;;;5093402;27;20766;-74
2023/11/17 07:12:29;;;;;;;4.50;4.20;;;4.50;99.90;;;;;;5088804;27;20244;-74
2023/11/17 07:14:57;;;;;;;4.30;4.00;;;4.50;99.90;;;;;;5096162;27;20337;-73
2023/11/17 07:17:24;;;;;;;3.95;3.70;;;4.50;99.90;;;;;;5092756;27;20865;-76
2023/11/17 07:19:51;;;;;;;4.53;4.20;;;4.70;99.90;;;;;;5093283;27;20205;-74
2023/11/17 07:22:19;;;;;;;4.80;4.50;;;4.80;99.90;;;;;;5093094;27;20324;-72
2023/11/17 07:24:46;;;;;;;4.72;3.88;;;4.70;99.90;;;;;;5095195;28;20301;-73
2023/11/17 07:27:13;;;;;;;4.40;4.10;;;4.70;99.90;;;;;;5092753;27;20266;-76
2023/11/17 07:29:41;;;;;;;4.47;4.18;;;4.70;99.90;;;;;;5096231;27;21055;-74
2023/11/17 07:32:07;;;;;;;3.95;3.75;;;4.60;99.90;;;;;;5095440;27;20432;-73
2023/11/17 07:34:34;;;;;;;4.00;3.70;;;4.70;99.90;;;;;;5092635;28;20721;-74
2023/11/17 07:37:03;;;;;;;4.20;3.90;;;4.70;99.90;;;;;;5093646;28;20205;-74
2023/11/17 07:39:32;;;;;;;3.40;3.20;;;4.70;99.90;;;;;;5094859;28;20223;-75
2023/11/17 07:41:59;;;;;;;3.60;3.35;;;4.80;99.90;;;;;;5096897;27;20216;-76
2023/11/17 07:44:25;;;;;;;4.00;3.70;;;4.90;99.90;;;;;;5094866;27;20743;-75
2023/11/17 07:46:53;;;;;;;3.90;3.58;;;5.00;99.90;;;;;;5090529;27;20882;-72
2023/11/17 07:49:21;;;;;;;4.47;4.07;;;5.30;99.90;;;;;;5094849;27;20750;-73
2023/11/17 07:51:49;;;;;;;3.92;3.63;;;6.10;99.90;;;;;;5092933;28;20618;-75
2023/11/17 07:54:16;;;;;;;4.38;3.97;;;7.10;99.90;;;;;;5095701;28;20201;-73
2023/11/17 07:56:45;;;;;;;4.45;4.15;;;8.10;99.90;;;;;;5095083;27;20263;-73
2023/11/17 07:59:12;;;;;;;4.43;4.03;;;9.10;99.90;;;;;;5091983;28;20674;-74
2023/11/17 08:01:39;;;;;;;4.60;4.22;;;10.00;99.90;;;;;;5097879;28;20196;-73
2023/11/17 08:04:08;;;;;;;3.35;3.13;;;10.80;99.90;;;;;;5095508;28;20274;-74
2023/11/17 08:06:36;;;;;;;4.50;4.20;;;11.40;99.90;;;;;;5092828;28;20201;-74
2023/11/17 08:09:04;;;;;;;3.90;3.60;;;11.80;99.90;;;;;;5096523;28;20235;-74
2023/11/17 08:11:31;;;;;;;3.63;3.40;;;12.00;99.90;;;;;;5096116;28;20297;-74
2023/11/17 08:13:59;;;;;;;3.45;3.25;;;12.00;99.90;;;;;;5093747;28;20912;-74
2023/11/17 08:16:27;;;;;;;3.83;3.35;;;12.20;99.90;;;;;;5095182;28;20689;-74
2023/11/17 08:18:54;;;;;;;4.65;3.20;;;12.40;99.90;;;;;;5091178;28;21075;-75
2023/11/17 08:21:21;;;;;;;4.43;3.65;;;12.50;99.90;;;;;;5094320;28;20201;-72
2023/11/17 08:23:48;;;;;;;3.60;3.30;;;12.70;99.90;;;;;;5096174;28;20189;-74
2023/11/17 08:26:18;;;;;;;4.32;3.92;;;13.00;99.90;;;;;;5091305;28;20706;-75
2023/11/17 08:28:48;;;;;;;4.07;3.70;;;13.30;99.90;;;;;;5086640;28;20209;-74
2023/11/17 08:31:17;;;;;;;3.95;3.63;;;13.30;99.90;;;;;;5095640;28;20718;-75
2023/11/17 08:33:45;;;;;;;4.20;3.75;;;13.50;99.90;;;;;;5093849;28;20213;-74
2023/11/17 08:36:12;;;;;;;3.83;3.45;;;13.40;99.90;;;;;;5093756;28;20225;-75
2023/11/17 08:38:41;;;;;;;5.63;5.13;;;13.20;99.90;;;;;;5092380;28;20216;-75
2023/11/17 08:41:10;;;;;;;5.00;4.50;;;13.40;99.90;;;;;;5095582;28;20250;-73
2023/11/17 08:43:37;;;;;;;4.97;4.45;;;13.90;99.90;;;;;;5094223;28;20309;-75
2023/11/17 08:46:06;;;;;;;5.55;3.80;;;14.30;99.90;;;;;;5095814;28;20341;-74
2023/11/17 08:48:35;;;;;;;3.75;3.42;;;14.50;99.90;;;;;;5093641;28;20228;-73
2023/11/17 08:51:02;;;;;;;4.20;3.17;;;14.00;99.90;;;;;;5095662;28;20290;-74
2023/11/17 08:53:29;;;;;;;6.13;3.90;;;13.80;99.90;;;;;;5093602;28;20261;-76
2023/11/17 08:55:56;;;;;;;4.68;4.05;;;13.30;99.90;;;;;;5088747;28;20754;-75
2023/11/17 08:58:24;;;;;;;5.05;3.60;;;13.30;99.90;;;;;;5093428;28;20261;-75
2023/11/17 09:00:50;;;;;;;4.10;3.58;;;13.30;99.90;;;;;;5093918;28;20197;-74
2023/11/17 09:03:17;;;;;;;3.83;3.45;;;13.80;99.90;;;;;;5095210;28;20269;-74
2023/11/17 09:05:45;;;;;;;5.25;3.72;;;14.60;99.90;;;;;;5096978;27;20824;-74
2023/11/17 09:08:12;;;;;;;4.95;3.17;;;16.20;99.90;;;;;;5099362;27;20956;-74
2023/11/17 09:10:40;;;;;;;3.88;3.40;;;17.60;99.90;;;;;;5097617;27;20193;-74
2023/11/17 09:13:08;;;;;;;4.22;3.15;;;19.10;99.90;;;;;;5099425;27;20220;-74
2023/11/17 09:15:38;;;;;;;3.05;2.85;;;20.10;99.90;;;;;;5095416;27;20197;-76
2023/11/17 09:18:07;;;;;;;4.15;2.97;;;21.00;99.90;;;;;;5097001;27;20197;-75
2023/11/17 09:20:36;;;;;;;6.50;3.08;;;21.30;99.90;;;;;;5097380;27;20216;-75
2023/11/17 09:23:06;;;;;;;3.50;2.72;;;21.50;99.90;;;;;;5093636;27;20229;-75
2023/11/17 09:25:33;;;;;;;3.00;2.70;;;21.60;99.90;;;;;;5096381;27;20229;-74
2023/11/17 09:28:02;;;;;;;4.28;2.92;;;21.10;99.90;;;;;;5096823;28;20208;-75
2023/11/17 09:30:30;;;;;;;4.45;2.72;;;20.10;99.90;;;;;;5096216;27;20192;-76
2023/11/17 09:32:59;;;;;;;3.88;3.00;;;18.90;99.90;;;;;;5100949;27;20222;-75
2023/11/17 09:35:27;;;;;;;4.07;3.25;;;17.80;99.90;;;;;;5095650;27;20193;-75
2023/11/17 09:37:55;;;;;;;3.58;3.17;;;16.80;99.90;;;;;;5101109;27;20277;-75
2023/11/17 09:40:25;;;;;;;3.30;3.00;;;16.00;99.90;;;;;;5099874;27;20217;-76
2023/11/17 09:42:53;;;;;;;3.55;3.25;;;15.40;99.90;;;;;;5096860;28;20220;-75
2023/11/17 09:45:22;;;;;;;5.57;3.78;;;15.10;99.90;;;;;;5100025;27;20294;-74
2023/11/17 09:47:54;;;;;;;4.53;3.30;;;14.80;99.90;;;;;;5099068;27;20257;-76
2023/11/17 09:50:26;;;;;;;3.72;3.40;;;14.60;99.90;;;;;;5098449;28;20212;-76
2023/11/17 09:52:55;;;;;;;3.40;3.10;;;14.60;99.90;;;;;;5097784;27;20889;-76
2023/11/17 09:55:27;;;;;;;3.35;3.05;;;14.60;99.90;;;;;;5096673;27;20254;-76
2023/11/17 09:57:56;;;;;;;3.80;3.40;;;14.60;99.90;;;;;;5097711;28;20212;-75
2023/11/17 10:00:27;;;;;;;3.72;3.38;;;14.40;99.90;;;;;;5095954;27;20213;-75
2023/11/17 10:02:55;;;;;;;4.78;3.63;;;14.40;99.90;;;;;;5094741;27;20223;-76
2023/11/17 10:05:23;;;;;;;3.90;3.60;;;14.40;99.90;;;;;;5093467;27;20861;-74
2023/11/17 10:07:53;;;;;;;3.75;3.45;;;14.30;99.90;;;;;;5093468;27;20205;-74
2023/11/17 10:10:23;;;;;;;3.05;2.75;;;14.40;99.90;;;;;;5094670;27;20969;-74
2023/11/17 10:12:54;;;;;;;7.63;2.95;;;14.50;99.90;;;;;;5097011;27;20270;-75
2023/11/17 10:15:25;;;;;;;4.90;3.38;;;14.60;99.90;;;;;;5094500;27;20193;-73
2023/11/17 10:17:57;;;;;;;3.58;2.70;;;14.80;99.90;;;;;;5097092;27;20865;-75
2023/11/17 10:20:26;;;;;;;3.28;2.83;;;14.60;99.90;;;;;;5096441;27;20289;-75
2023/11/17 10:22:54;;;;;;;3.58;3.00;;;14.40;99.90;;;;;;5095841;28;20879;-75
2023/11/17 10:25:24;;;;;;;3.92;3.03;;;14.30;99.90;;;;;;5093638;28;20243;-74
2023/11/17 10:27:52;;;;;;;3.33;3.05;;;14.00;99.90;;;;;;5091965;27;20201;-74
2023/11/17 10:30:20;;;;;;;3.40;3.10;;;14.10;99.90;;;;;;5099444;27;20351;-75
2023/11/17 10:32:54;;;;;;;3.80;3.13;;;14.30;99.90;;;;;;5094499;27;20256;-75
2023/11/17 10:35:31;;;;;;;4.30;3.20;;;14.50;99.90;;;;;;5097656;28;20318;-75
2023/11/17 10:37:58;;;;;;;2.67;2.45;;;14.60;99.90;;;;;;5094057;27;20246;-74
2023/11/17 10:40:31;;;;;;;4.43;2.85;;;14.60;99.90;;;;;;5094435;28;20233;-74
2023/11/17 10:43:11;;;;;;;2.50;2.30;;;14.70;99.90;;;;;;5095935;28;20235;-75
2023/11/17 10:45:40;;;;;;;2.70;2.50;;;14.80;99.90;;;;;;5092708;27;20208;-75
2023/11/17 10:48:08;;;;;;;2.85;2.50;;;14.80;99.90;;;;;;5096013;27;20337;-75
2023/11/17 10:50:36;;;;;;;4.43;2.50;;;15.00;99.90;;;;;;5096320;27;21013;-76
2023/11/17 10:53:14;;;;;;;3.78;2.38;;;15.30;99.90;;;;;;5096313;27;20220;-76
2023/11/17 10:55:42;;;;;;;2.55;2.28;;;15.20;99.90;;;;;;5091716;27;20842;-75
2023/11/17 10:58:15;;;;;;;1.92;1.80;;;15.30;99.90;;;;;;5098528;27;20899;-75
2023/11/17 11:00:42;;;;;;;2.20;2.00;;;15.60;99.90;;;;;;5093896;27;20636;-75
2023/11/17 11:03:12;;;;;;;2.75;1.90;;;15.70;99.90;;;;;;5095949;27;20220;-75
2023/11/17 11:05:41;;;;;;;3.00;1.52;;;15.80;99.90;;;;;;5093788;28;20877;-75
2023/11/17 11:08:17;;;;;;;2.03;1.90;;;16.00;99.90;;;;;;5092388;28;20192;-75
2023/11/17 11:10:54;;;;;;;1.90;1.80;;;16.00;99.90;;;;;;5093125;28;20189;-75
2023/11/17 11:13:28;;;;;;;2.30;1.90;;;16.00;99.90;;;;;;5095292;27;20212;-75
2023/11/17 11:16:05;;;;;;;2.15;1.90;;;15.30;99.90;;;;;;5093884;28;20232;-75
2023/11/17 11:18:36;;;;;;;2.42;2.22;;;14.90;99.90;;;;;;5093348;28;20877;-75
2023/11/17 11:21:06;;;;;;;2.88;2.10;;;14.90;99.90;;;;;;5092952;28;20293;-76
2023/11/17 11:23:34;;;;;;;1.85;1.75;;;15.00;99.90;;;;;;5093391;27;20726;-75
2023/11/17 11:26:04;;;;;;;2.30;2.10;;;14.80;99.90;;;;;;5095880;27;20228;-75
2023/11/17 11:28:32;;;;;;;2.20;2.00;;;14.90;99.90;;;;;;5093240;27;20197;-74
2023/11/17 11:31:00;;;;;;;2.40;1.70;;;14.50;99.90;;;;;;5094489;28;20196;-75
2023/11/17 11:33:30;;;;;;;2.20;1.92;;;14.50;99.90;;;;;;5094032;27;20229;-74
2023/11/17 11:35:57;;;;;;;1.75;1.65;;;14.70;99.90;;;;;;5094552;27;20724;-76
2023/11/17 11:38:25;;;;;;;3.45;1.90;;;14.80;99.90;;;;;;5093501;27;20232;-76
2023/11/17 11:40:52;;;;;;;2.38;1.52;;;14.80;99.90;;;;;;5092786;27;20304;-75
2023/11/17 11:43:21;;;;;;;2.00;1.80;;;14.90;99.90;;;;;;5098312;27;20251;-75
2023/11/17 11:45:49;;;;;;;1.80;1.70;;;15.00;99.90;;;;;;5092899;27;20251;-75
2023/11/17 11:48:20;;;;;;;1.80;1.70;;;15.20;99.90;;;;;;5093409;28;20743;-75
2023/11/17 11:50:49;;;;;;;1.67;1.58;;;15.50;99.90;;;;;;5093436;28;20204;-75
2023/11/17 11:53:33;;;;;;;1.40;1.35;;;14.90;99.90;;;;;;5095573;28;20632;-75
2023/11/17 11:56:11;;;;;;;1.30;1.30;;;14.60;99.90;;;;;;5096696;28;20285;-75
2023/11/17 11:58:43;;;;;;;1.40;1.30;;;14.70;99.90;;;;;;5093361;28;20201;-75
2023/11/17 12:01:13;;;;;;;1.70;1.60;;;15.00;99.90;;;;;;5092493;28;20216;-75
2023/11/17 12:03:44;;;;;;;2.55;1.60;;;15.30;99.90;;;;;;5091139;28;20221;-74
2023/11/17 12:06:11;;;;;;;5.28;3.33;;;15.60;99.90;;;;;;5097475;28;20199;-75
2023/11/17 12:08:38;;;;;;;1.83;1.70;;;15.80;99.90;;;;;;5095410;28;20200;-75
2023/11/17 12:11:11;;;;;;;1.88;1.77;;;16.00;99.90;;;;;;5094913;28;20204;-75
2023/11/17 12:13:44;;;;;;;1.50;1.40;;;16.10;99.90;;;;;;5093516;28;20212;-75
2023/11/17 12:16:18;;;;;;;3.05;1.10;;;16.20;99.90;;;;;;5086853;28;20638;-75
2023/11/17 12:18:48;;;;;;;1.10;1.10;;;16.40;99.90;;;;;;5082218;28;20215;-75
2023/11/17 12:21:20;;;;;;;1.20;1.17;;;16.50;99.90;;;;;;5080438;28;20213;-76
2023/11/17 12:23:53;;;;;;;1.05;1.05;;;16.50;99.90;;;;;;5081177;28;20224;-75
2023/11/17 12:26:22;;;;;;;0.95;0.95;;;16.40;99.90;;;;;;5080172;28;20697;-75
2023/11/17 12:28:50;;;;;;;9.32;3.00;;;16.40;99.90;;;;;;5089295;28;20193;-75
2023/11/17 12:31:19;;;;;;;1.88;1.58;;;16.40;99.90;;;;;;5090869;28;20200;-76
2023/11/17 12:33:49;;;;;;;1.50;1.40;;;16.40;99.90;;;;;;5096513;28;20248;-74
2023/11/17 12:36:17;;;;;;;2.15;1.30;;;16.60;99.90;;;;;;5090205;28;20197;-75
2023/11/17 12:38:45;;;;;;;2.33;1.00;;;16.50;99.90;;;;;;5092398;28;20340;-77
2023/11/17 12:41:13;;;;;;;1.00;1.00;;;16.50;99.90;;;;;;5099478;27;20217;-75
2023/11/17 12:43:40;;;;;;;1.30;1.20;;;16.40;99.90;;;;;;5099809;27;20255;-75
2023/11/17 12:46:09;;;;;;;2.05;1.05;;;16.40;99.90;;;;;;5100243;27;20620;-75
2023/11/17 12:48:39;;;;;;;1.27;1.20;;;16.40;99.90;;;;;;5099954;28;20234;-76
2023/11/17 12:51:07;;;;;;;1.38;1.08;;;16.50;99.90;;;;;;5099338;28;20221;-75
2023/11/17 12:53:42;;;;;;;1.77;1.67;;;16.40;99.90;;;;;;5098855;27;20229;-76
2023/11/17 12:56:10;;;;;;;1.27;1.25;;;16.40;99.90;;;;;;5096906;27;20200;-75
2023/11/17 12:58:38;;;;;;;1.05;1.05;;;16.20;99.90;;;;;;5099478;27;20257;-76
2023/11/17 13:01:14;;;;;;;1.45;1.35;;;15.90;99.90;;;;;;5097246;27;20223;-76